Homestead National Monument, Nebraska
Current Conditions -  °F | °C
As of 6:35 AM on Monday 26 Jan 2015 (Local Time) from KBIE Reporting Station
Clear Clear  
Wind Chill: 22°   Ceiling: Unl
Heat Index: 30°   Visibility: 10mi
Dew Point: 28°   Wind: 9mph
Humidity: 90%   Direction: 220°SW
Pressure: 29.93"   Gusts: NA
Location:  40.2674°N, 96.7699°W
Report Text: KBIE 261235Z AUTO 22008KT 10SM CLR M01/M02 A2993 RMK AO2 T10091024
Loading
Personal Weather Stations






























Interactive Weather Map New forecast layout! Learn more

10-Day Weather Forecast

Advertisements
Track Severe Weather on mobile